sensor_id;sensor_type;location;lat;lon;timestamp;pressure;altitude;pressure_sealevel;temperature;humidity
82986;BME280;72786;53.546;9.910;2024-01-15T00:00:51;98729.81;;;2.62;93.84
82986;BME280;72786;53.546;9.910;2024-01-15T00:03:17;98731.75;;;2.74;94.30
82986;BME280;72786;53.546;9.910;2024-01-15T00:05:44;98725.78;;;2.74;93.73
82986;BME280;72786;53.546;9.910;2024-01-15T00:08:10;98729.22;;;2.74;93.68
82986;BME280;72786;53.546;9.910;2024-01-15T00:10:37;98719.94;;;2.65;93.82
82986;BME280;72786;53.546;9.910;2024-01-15T00:13:03;98728.31;;;2.64;93.71
82986;BME280;72786;53.546;9.910;2024-01-15T00:15:30;98732.47;;;2.45;94.97
82986;BME280;72786;53.546;9.910;2024-01-15T00:17:56;98730.22;;;2.48;94.97
82986;BME280;72786;53.546;9.910;2024-01-15T00:20:23;98720.44;;;2.42;95.13
82986;BME280;72786;53.546;9.910;2024-01-15T00:22:51;98727.63;;;2.38;95.47
82986;BME280;72786;53.546;9.910;2024-01-15T00:25:17;98724.66;;;2.52;95.46
82986;BME280;72786;53.546;9.910;2024-01-15T00:27:44;98679.13;;;2.33;95.05
82986;BME280;72786;53.546;9.910;2024-01-15T00:30:11;98719.13;;;2.56;95.46
82986;BME280;72786;53.546;9.910;2024-01-15T00:32:38;98704.97;;;2.58;95.29
82986;BME280;72786;53.546;9.910;2024-01-15T00:35:04;98685.47;;;2.57;94.96
82986;BME280;72786;53.546;9.910;2024-01-15T00:37:31;98683.72;;;2.66;94.99
82986;BME280;72786;53.546;9.910;2024-01-15T00:39:58;98667.00;;;2.58;95.08
82986;BME280;72786;53.546;9.910;2024-01-15T00:42:25;98670.44;;;2.68;94.99
82986;BME280;72786;53.546;9.910;2024-01-15T00:44:51;98687.41;;;2.69;94.92
82986;BME280;72786;53.546;9.910;2024-01-15T00:47:18;98661.66;;;2.55;94.57
82986;BME280;72786;53.546;9.910;2024-01-15T00:49:45;98676.41;;;2.69;94.51
82986;BME280;72786;53.546;9.910;2024-01-15T00:52:11;98665.00;;;2.64;94.64
82986;BME280;72786;53.546;9.910;2024-01-15T00:54:38;98668.28;;;2.73;94.65
82986;BME280;72786;53.546;9.910;2024-01-15T00:57:05;98667.28;;;2.71;94.90
82986;BME280;72786;53.546;9.910;2024-01-15T00:59:31;98656.13;;;2.69;94.26
82986;BME280;72786;53.546;9.910;2024-01-15T01:01:58;98662.34;;;2.72;94.80
82986;BME280;72786;53.546;9.910;2024-01-15T01:04:24;98647.25;;;2.64;94.38
82986;BME280;72786;53.546;9.910;2024-01-15T01:06:51;98647.16;;;2.72;94.19
82986;BME280;72786;53.546;9.910;2024-01-15T01:09:17;98638.81;;;2.73;93.86
82986;BME280;72786;53.546;9.910;2024-01-15T01:11:44;98649.81;;;2.74;93.54
82986;BME280;72786;53.546;9.910;2024-01-15T01:14:10;98640.66;;;2.66;93.76
82986;BME280;72786;53.546;9.910;2024-01-15T01:16:37;98640.97;;;2.79;93.61
82986;BME280;72786;53.546;9.910;2024-01-15T01:19:05;98638.44;;;2.79;93.46
82986;BME280;72786;53.546;9.910;2024-01-15T01:21:33;98584.94;;;2.66;93.95
82986;BME280;72786;53.546;9.910;2024-01-15T01:24:00;98634.88;;;2.87;93.20
82986;BME280;72786;53.546;9.910;2024-01-15T01:26:26;98626.06;;;2.92;93.41
82986;BME280;72786;53.546;9.910;2024-01-15T01:28:53;98622.13;;;2.95;93.33
82986;BME280;72786;53.546;9.910;2024-01-15T01:31:19;98580.44;;;2.72;92.52
82986;BME280;72786;53.546;9.910;2024-01-15T01:33:46;98614.25;;;2.92;93.07
82986;BME280;72786;53.546;9.910;2024-01-15T01:36:12;98589.66;;;2.71;93.02
82986;BME280;72786;53.546;9.910;2024-01-15T01:38:39;98605.88;;;2.83;93.71
82986;BME280;72786;53.546;9.910;2024-01-15T01:41:06;98616.56;;;2.89;93.69
82986;BME280;72786;53.546;9.910;2024-01-15T01:43:33;98615.41;;;2.86;93.56
82986;BME280;72786;53.546;9.910;2024-01-15T01:46:00;98565.16;;;2.52;93.75
82986;BME280;72786;53.546;9.910;2024-01-15T01:48:28;98615.13;;;2.83;94.12
82986;BME280;72786;53.546;9.910;2024-01-15T01:50:57;98627.41;;;2.78;93.32
82986;BME280;72786;53.546;9.910;2024-01-15T01:53:26;98619.41;;;2.74;93.86
82986;BME280;72786;53.546;9.910;2024-01-15T01:55:53;98579.88;;;2.66;93.84
82986;BME280;72786;53.546;9.910;2024-01-15T01:58:20;98625.78;;;2.89;93.29
82986;BME280;72786;53.546;9.910;2024-01-15T02:00:47;98623.25;;;2.89;94.02
82986;BME280;72786;53.546;9.910;2024-01-15T02:03:14;98614.50;;;2.85;94.10
82986;BME280;72786;53.546;9.910;2024-01-15T02:05:42;98591.53;;;2.74;94.11
82986;BME280;72786;53.546;9.910;2024-01-15T02:08:09;98593.84;;;2.71;93.93
82986;BME280;72786;53.546;9.910;2024-01-15T02:10:35;98568.75;;;2.74;94.34
82986;BME280;72786;53.546;9.910;2024-01-15T02:13:02;98586.75;;;2.87;94.68
82986;BME280;72786;53.546;9.910;2024-01-15T02:15:29;98579.66;;;2.83;94.13
82986;BME280;72786;53.546;9.910;2024-01-15T02:20:23;98598.94;;;2.91;94.54
82986;BME280;72786;53.546;9.910;2024-01-15T02:22:49;98591.44;;;2.72;94.29
82986;BME280;72786;53.546;9.910;2024-01-15T02:25:15;98604.59;;;2.68;94.75
82986;BME280;72786;53.546;9.910;2024-01-15T02:27:42;98561.06;;;2.44;94.56
82986;BME280;72786;53.546;9.910;2024-01-15T02:30:13;98605.88;;;2.83;95.02
82986;BME280;72786;53.546;9.910;2024-01-15T02:32:39;98602.97;;;2.79;94.89
82986;BME280;72786;53.546;9.910;2024-01-15T02:35:06;98589.81;;;2.83;95.05
82986;BME280;72786;53.546;9.910;2024-01-15T02:37:33;98598.44;;;2.85;94.47
82986;BME280;72786;53.546;9.910;2024-01-15T02:39:59;98556.09;;;2.74;94.65
82986;BME280;72786;53.546;9.910;2024-01-15T02:42:26;98582.22;;;2.93;94.66
82986;BME280;72786;53.546;9.910;2024-01-15T02:44:52;98566.63;;;2.78;94.83
82986;BME280;72786;53.546;9.910;2024-01-15T02:47:19;98596.66;;;2.94;94.39
82986;BME280;72786;53.546;9.910;2024-01-15T02:49:45;98582.72;;;2.79;94.81
82986;BME280;72786;53.546;9.910;2024-01-15T02:52:12;98566.25;;;2.84;94.55
82986;BME280;72786;53.546;9.910;2024-01-15T02:54:38;98557.63;;;2.72;95.14
82986;BME280;72786;53.546;9.910;2024-01-15T02:57:05;98594.66;;;2.99;94.89
82986;BME280;72786;53.546;9.910;2024-01-15T02:59:31;98598.94;;;2.91;95.00
82986;BME280;72786;53.546;9.910;2024-01-15T03:01:58;98565.75;;;2.78;94.43
82986;BME280;72786;53.546;9.910;2024-01-15T03:04:24;98597.91;;;2.89;94.80
82986;BME280;72786;53.546;9.910;2024-01-15T03:06:51;98601.88;;;2.95;94.67
82986;BME280;72786;53.546;9.910;2024-01-15T03:09:17;98574.72;;;2.84;94.64
82986;BME280;72786;53.546;9.910;2024-01-15T03:11:44;98574.59;;;2.83;94.55
82986;BME280;72786;53.546;9.910;2024-01-15T03:14:10;98599.44;;;2.97;94.32
82986;BME280;72786;53.546;9.910;2024-01-15T03:16:37;98604.50;;;2.87;93.98
82986;BME280;72786;53.546;9.910;2024-01-15T03:19:04;98602.47;;;2.83;94.13
82986;BME280;72786;53.546;9.910;2024-01-15T03:21:30;98567.22;;;2.56;94.70
82986;BME280;72786;53.546;9.910;2024-01-15T03:23:57;98577.34;;;2.56;95.14
82986;BME280;72786;53.546;9.910;2024-01-15T03:26:23;98616.63;;;2.81;94.94
82986;BME280;72786;53.546;9.910;2024-01-15T03:28:50;98618.94;;;2.88;95.11
82986;BME280;72786;53.546;9.910;2024-01-15T03:31:18;98619.34;;;2.82;95.20
82986;BME280;72786;53.546;9.910;2024-01-15T03:33:44;98613.13;;;2.79;95.24
82986;BME280;72786;53.546;9.910;2024-01-15T03:36:11;98622.97;;;2.76;95.59
82986;BME280;72786;53.546;9.910;2024-01-15T03:38:40;98618.19;;;2.79;95.73
82986;BME280;72786;53.546;9.910;2024-01-15T03:41:07;98580.91;;;2.58;95.54
82986;BME280;72786;53.546;9.910;2024-01-15T03:43:34;98620.84;;;2.80;95.60
82986;BME280;72786;53.546;9.910;2024-01-15T03:46:00;98591.53;;;2.64;95.64
82986;BME280;72786;53.546;9.910;2024-01-15T03:48:28;98611.06;;;2.65;95.82
82986;BME280;72786;53.546;9.910;2024-01-15T03:50:55;98628.53;;;2.72;95.82
82986;BME280;72786;53.546;9.910;2024-01-15T03:53:21;98632.81;;;2.73;96.24
82986;BME280;72786;53.546;9.910;2024-01-15T03:55:48;98595.53;;;2.52;96.51
82986;BME280;72786;53.546;9.910;2024-01-15T03:58:14;98626.53;;;2.78;96.26
82986;BME280;72786;53.546;9.910;2024-01-15T04:00:42;98626.66;;;2.79;96.13
82986;BME280;72786;53.546;9.910;2024-01-15T04:03:09;98593.16;;;2.63;95.71
82986;BME280;72786;53.546;9.910;2024-01-15T04:05:35;98622.63;;;2.81;95.28
82986;BME280;72786;53.546;9.910;2024-01-15T04:08:02;98587.22;;;2.73;95.08
82986;BME280;72786;53.546;9.910;2024-01-15T04:10:29;98627.06;;;2.94;95.30
82986;BME280;72786;53.546;9.910;2024-01-15T04:12:55;98624.53;;;3.03;94.34
82986;BME280;72786;53.546;9.910;2024-01-15T04:15:22;98597.16;;;2.90;94.38
82986;BME280;72786;53.546;9.910;2024-01-15T04:17:48;98620.34;;;2.94;93.96
82986;BME280;72786;53.546;9.910;2024-01-15T04:20:15;98603.50;;;2.85;93.80
82986;BME280;72786;53.546;9.910;2024-01-15T04:22:41;98625.94;;;3.00;94.03
82986;BME280;72786;53.546;9.910;2024-01-15T04:25:08;98630.66;;;3.05;93.92
82986;BME280;72786;53.546;9.910;2024-01-15T04:27:34;98621.50;;;2.97;93.34
82986;BME280;72786;53.546;9.910;2024-01-15T04:30:01;98621.88;;;2.92;93.56
82986;BME280;72786;53.546;9.910;2024-01-15T04:32:27;98635.69;;;2.96;93.44
82986;BME280;72786;53.546;9.910;2024-01-15T04:34:55;98633.16;;;2.96;93.84
82986;BME280;72786;53.546;9.910;2024-01-15T04:37:21;98627.31;;;2.97;93.58
82986;BME280;72786;53.546;9.910;2024-01-15T04:39:48;98611.72;;;2.92;93.55
82986;BME280;72786;53.546;9.910;2024-01-15T04:42:14;98616.91;;;2.94;92.99
82986;BME280;72786;53.546;9.910;2024-01-15T04:44:41;98628.88;;;3.04;93.14
82986;BME280;72786;53.546;9.910;2024-01-15T04:47:07;98633.03;;;3.04;92.52
82986;BME280;72786;53.546;9.910;2024-01-15T04:49:34;98638.50;;;2.98;92.36
82986;BME280;72786;53.546;9.910;2024-01-15T04:52:00;98634.69;;;3.03;92.96
82986;BME280;72786;53.546;9.910;2024-01-15T04:54:27;98635.19;;;2.99;92.54
82986;BME280;72786;53.546;9.910;2024-01-15T04:56:53;98629.59;;;2.94;93.18
82986;BME280;72786;53.546;9.910;2024-01-15T04:59:20;98634.41;;;2.91;92.83
82986;BME280;72786;53.546;9.910;2024-01-15T05:01:46;98592.81;;;2.69;92.88
82986;BME280;72786;53.546;9.910;2024-01-15T05:04:13;98635.41;;;2.83;93.16
82986;BME280;72786;53.546;9.910;2024-01-15T05:06:40;98620.03;;;2.71;93.44
82986;BME280;72786;53.546;9.910;2024-01-15T05:09:06;98622.44;;;2.70;93.45
82986;BME280;72786;53.546;9.910;2024-01-15T05:11:33;98618.13;;;2.69;93.86
82986;BME280;72786;53.546;9.910;2024-01-15T05:13:59;98621.31;;;2.66;93.59
82986;BME280;72786;53.546;9.910;2024-01-15T05:16:26;98629.03;;;2.68;93.51
82986;BME280;72786;53.546;9.910;2024-01-15T05:18:52;98610.72;;;2.52;93.56
82986;BME280;72786;53.546;9.910;2024-01-15T05:21:19;98631.09;;;2.72;93.87
82986;BME280;72786;53.546;9.910;2024-01-15T05:23:45;98629.06;;;2.78;93.88
82986;BME280;72786;53.546;9.910;2024-01-15T05:26:12;98605.47;;;2.69;93.98
82986;BME280;72786;53.546;9.910;2024-01-15T05:28:41;98633.38;;;2.89;93.39
82986;BME280;72786;53.546;9.910;2024-01-15T05:31:08;98624.13;;;2.79;93.53
82986;BME280;72786;53.546;9.910;2024-01-15T05:33:34;98634.66;;;2.84;92.90
82986;BME280;72786;53.546;9.910;2024-01-15T05:36:01;98616.13;;;2.75;93.19
82986;BME280;72786;53.546;9.910;2024-01-15T05:38:28;98620.72;;;2.79;93.38
82986;BME280;72786;53.546;9.910;2024-01-15T05:40:54;98629.59;;;2.84;93.61
82986;BME280;72786;53.546;9.910;2024-01-15T05:43:21;98629.06;;;2.88;93.67
82986;BME280;72786;53.546;9.910;2024-01-15T05:45:47;98629.97;;;2.88;93.15
82986;BME280;72786;53.546;9.910;2024-01-15T05:48:14;98627.44;;;2.88;93.09
82986;BME280;72786;53.546;9.910;2024-01-15T05:50:41;98630.38;;;2.93;93.55
82986;BME280;72786;53.546;9.910;2024-01-15T05:53:08;98598.63;;;2.68;93.29
82986;BME280;72786;53.546;9.910;2024-01-15T05:55:36;98632.63;;;2.90;93.00
82986;BME280;72786;53.546;9.910;2024-01-15T05:58:03;98633.91;;;2.85;93.42
82986;BME280;72786;53.546;9.910;2024-01-15T06:00:30;98642.50;;;2.87;94.13
82986;BME280;72786;53.546;9.910;2024-01-15T06:02:56;98647.31;;;2.94;93.65
82986;BME280;72786;53.546;9.910;2024-01-15T06:05:23;98650.63;;;2.93;93.23
82986;BME280;72786;53.546;9.910;2024-01-15T06:07:49;98647.56;;;2.87;93.86
82986;BME280;72786;53.546;9.910;2024-01-15T06:10:16;98625.47;;;2.66;93.78
82986;BME280;72786;53.546;9.910;2024-01-15T06:12:43;98655.78;;;2.84;94.14
82986;BME280;72786;53.546;9.910;2024-01-15T06:15:10;98651.09;;;2.79;93.60
82986;BME280;72786;53.546;9.910;2024-01-15T06:17:36;98641.22;;;2.82;93.89
82986;BME280;72786;53.546;9.910;2024-01-15T06:20:04;98618.03;;;2.67;93.70
82986;BME280;72786;53.546;9.910;2024-01-15T06:22:31;98656.94;;;2.88;93.91
82986;BME280;72786;53.546;9.910;2024-01-15T06:24:58;98641.34;;;2.83;94.08
82986;BME280;72786;53.546;9.910;2024-01-15T06:27:24;98642.13;;;2.82;94.00
82986;BME280;72786;53.546;9.910;2024-01-15T06:29:51;98602.44;;;2.73;93.61
82986;BME280;72786;53.546;9.910;2024-01-15T06:32:17;98637.97;;;2.93;93.75
82986;BME280;72786;53.546;9.910;2024-01-15T06:34:44;98647.94;;;2.91;93.56
82986;BME280;72786;53.546;9.910;2024-01-15T06:37:11;98640.34;;;2.91;93.35
82986;BME280;72786;53.546;9.910;2024-01-15T06:39:37;98636.72;;;2.97;92.79
82986;BME280;72786;53.546;9.910;2024-01-15T06:42:04;98646.84;;;2.97;92.67
82986;BME280;72786;53.546;9.910;2024-01-15T06:44:30;98614.13;;;2.91;92.89
82986;BME280;72786;53.546;9.910;2024-01-15T06:46:56;98637.50;;;3.06;92.23
82986;BME280;72786;53.546;9.910;2024-01-15T06:49:29;98649.13;;;3.04;92.35
82986;BME280;72786;53.546;9.910;2024-01-15T06:51:56;98654.56;;;2.99;92.44
82986;BME280;72786;53.546;9.910;2024-01-15T06:54:22;98651.16;;;2.98;92.94
82986;BME280;72786;53.546;9.910;2024-01-15T06:56:50;98619.94;;;2.80;93.12
82986;BME280;72786;53.546;9.910;2024-01-15T06:59:16;98649.34;;;2.88;92.93
82986;BME280;72786;53.546;9.910;2024-01-15T07:01:45;98665.34;;;2.97;92.56
82986;BME280;72786;53.546;9.910;2024-01-15T07:04:13;98646.06;;;2.89;92.56
82986;BME280;72786;53.546;9.910;2024-01-15T07:06:39;98623.31;;;2.70;92.95
82986;BME280;72786;53.546;9.910;2024-01-15T07:09:06;98652.91;;;2.90;92.36
82986;BME280;72786;53.546;9.910;2024-01-15T07:11:34;98652.38;;;2.84;92.39
82986;BME280;72786;53.546;9.910;2024-01-15T07:14:00;98664.06;;;2.92;92.16
82986;BME280;72786;53.546;9.910;2024-01-15T07:16:26;98651.91;;;2.97;91.98
82986;BME280;72786;53.546;9.910;2024-01-15T07:19:03;98660.00;;;2.94;91.31
82986;BME280;72786;53.546;9.910;2024-01-15T07:21:30;98667.13;;;2.97;90.94
82986;BME280;72786;53.546;9.910;2024-01-15T07:23:56;98669.53;;;2.96;90.36
82986;BME280;72786;53.546;9.910;2024-01-15T07:26:23;98664.06;;;3.01;88.72
82986;BME280;72786;53.546;9.910;2024-01-15T07:28:49;98675.50;;;3.16;89.14
82986;BME280;72786;53.546;9.910;2024-01-15T07:31:17;98672.09;;;3.16;88.42
82986;BME280;72786;53.546;9.910;2024-01-15T07:33:44;98631.25;;;2.93;87.63
82986;BME280;72786;53.546;9.910;2024-01-15T07:36:10;98641.94;;;3.09;88.18
82986;BME280;72786;53.546;9.910;2024-01-15T07:38:37;98676.56;;;3.28;87.82
82986;BME280;72786;53.546;9.910;2024-01-15T07:41:04;98667.66;;;3.23;88.11
82986;BME280;72786;53.546;9.910;2024-01-15T07:43:30;98670.47;;;3.26;88.62
82986;BME280;72786;53.546;9.910;2024-01-15T07:45:56;98668.94;;;3.18;88.35
82986;BME280;72786;53.546;9.910;2024-01-15T07:48:23;98668.41;;;3.22;88.23
82986;BME280;72786;53.546;9.910;2024-01-15T07:50:50;98672.72;;;3.23;88.28
82986;BME280;72786;53.546;9.910;2024-01-15T07:53:17;98686.72;;;3.28;89.07
82986;BME280;72786;53.546;9.910;2024-01-15T07:55:43;98689.22;;;3.18;87.90
82986;BME280;72786;53.546;9.910;2024-01-15T07:58:12;98681.34;;;3.15;88.31
82986;BME280;72786;53.546;9.910;2024-01-15T08:00:42;98689.47;;;3.21;88.51
82986;BME280;72786;53.546;9.910;2024-01-15T08:03:09;98657.59;;;2.95;88.52
82986;BME280;72786;53.546;9.910;2024-01-15T08:05:35;98696.06;;;3.19;88.39
82986;BME280;72786;53.546;9.910;2024-01-15T08:08:02;98704.94;;;3.24;88.48
82986;BME280;72786;53.546;9.910;2024-01-15T08:10:29;98701.91;;;3.28;88.59
82986;BME280;72786;53.546;9.910;2024-01-15T08:12:55;98696.56;;;3.25;89.08
82986;BME280;72786;53.546;9.910;2024-01-15T08:15:22;98707.00;;;3.28;89.46
82986;BME280;72786;53.546;9.910;2024-01-15T08:17:48;98700.38;;;3.30;89.50
82986;BME280;72786;53.546;9.910;2024-01-15T08:20:15;98698.88;;;3.32;89.46
82986;BME280;72786;53.546;9.910;2024-01-15T08:22:42;98699.38;;;3.28;90.17
82986;BME280;72786;53.546;9.910;2024-01-15T08:25:09;98700.88;;;3.26;90.09
82986;BME280;72786;53.546;9.910;2024-01-15T08:27:35;98668.16;;;3.09;90.31
82986;BME280;72786;53.546;9.910;2024-01-15T08:30:02;98701.66;;;3.25;90.15
82986;BME280;72786;53.546;9.910;2024-01-15T08:32:30;98682.09;;;3.14;89.87
82986;BME280;72786;53.546;9.910;2024-01-15T08:34:57;98714.44;;;3.27;89.89
82986;BME280;72786;53.546;9.910;2024-01-15T08:37:23;98721.41;;;3.19;90.67
82986;BME280;72786;53.546;9.910;2024-01-15T08:39:50;98695.84;;;2.98;90.91
82986;BME280;72786;53.546;9.910;2024-01-15T08:42:17;98722.00;;;3.07;91.84
82986;BME280;72786;53.546;9.910;2024-01-15T08:44:44;98737.84;;;3.04;92.00
82986;BME280;72786;53.546;9.910;2024-01-15T08:47:28;98730.75;;;3.10;91.77
82986;BME280;72786;53.546;9.910;2024-01-15T08:49:54;98725.44;;;3.17;91.91
82986;BME280;72786;53.546;9.910;2024-01-15T08:52:21;98705.97;;;2.88;91.09
82986;BME280;72786;53.546;9.910;2024-01-15T08:54:47;98714.47;;;2.89;91.56
82986;BME280;72786;53.546;9.910;2024-01-15T08:57:14;98741.16;;;3.13;91.75
82986;BME280;72786;53.546;9.910;2024-01-15T08:59:40;98729.19;;;2.93;92.18
82986;BME280;72786;53.546;9.910;2024-01-15T09:02:07;98697.00;;;2.92;91.45
82986;BME280;72786;53.546;9.910;2024-01-15T09:04:34;98704.72;;;2.93;91.91
82986;BME280;72786;53.546;9.910;2024-01-15T09:07:00;98703.84;;;2.93;92.19
82986;BME280;72786;53.546;9.910;2024-01-15T09:09:27;98709.69;;;3.01;91.84
82986;BME280;72786;53.546;9.910;2024-01-15T09:11:53;98736.63;;;3.19;92.36
82986;BME280;72786;53.546;9.910;2024-01-15T09:14:20;98734.09;;;3.19;92.17
82986;BME280;72786;53.546;9.910;2024-01-15T09:17:03;98739.91;;;3.18;91.60
82986;BME280;72786;53.546;9.910;2024-01-15T09:19:29;98736.78;;;3.31;92.20
82986;BME280;72786;53.546;9.910;2024-01-15T09:21:56;98727.50;;;3.31;91.68
82986;BME280;72786;53.546;9.910;2024-01-15T09:24:22;98730.81;;;3.30;91.99
82986;BME280;72786;53.546;9.910;2024-01-15T09:26:54;98729.28;;;3.32;91.49
82986;BME280;72786;53.546;9.910;2024-01-15T09:29:20;98728.41;;;3.32;91.96
82986;BME280;72786;53.546;9.910;2024-01-15T09:31:47;98741.34;;;3.35;91.88
82986;BME280;72786;53.546;9.910;2024-01-15T09:34:13;98739.44;;;3.32;92.10
82986;BME280;72786;53.546;9.910;2024-01-15T09:36:40;98730.56;;;3.27;92.19
82986;BME280;72786;53.546;9.910;2024-01-15T09:39:09;98726.13;;;3.25;92.84
82986;BME280;72786;53.546;9.910;2024-01-15T09:41:37;98735.63;;;3.27;92.75
82986;BME280;72786;53.546;9.910;2024-01-15T09:44:04;98747.00;;;3.22;93.34
82986;BME280;72786;53.546;9.910;2024-01-15T09:46:32;98748.25;;;3.17;92.75
82986;BME280;72786;53.546;9.910;2024-01-15T09:48:59;98760.41;;;3.11;92.55
82986;BME280;72786;53.546;9.910;2024-01-15T09:51:26;98759.06;;;3.25;92.57
82986;BME280;72786;53.546;9.910;2024-01-15T09:53:54;98765.81;;;3.44;92.60
82986;BME280;72786;53.546;9.910;2024-01-15T09:56:21;98767.72;;;3.37;92.68
82986;BME280;72786;53.546;9.910;2024-01-15T09:58:48;98786.03;;;3.53;92.62
82986;BME280;72786;53.546;9.910;2024-01-15T10:01:16;98799.81;;;3.46;91.55
82986;BME280;72786;53.546;9.910;2024-01-15T10:03:44;98804.16;;;3.57;92.33
82986;BME280;72786;53.546;9.910;2024-01-15T10:06:11;98822.94;;;3.59;91.92
82986;BME280;72786;53.546;9.910;2024-01-15T10:08:40;98793.94;;;3.37;91.21
82986;BME280;72786;53.546;9.910;2024-01-15T10:11:06;98810.38;;;3.22;90.95
82986;BME280;72786;53.546;9.910;2024-01-15T10:13:33;98819.06;;;3.06;91.13
82986;BME280;72786;53.546;9.910;2024-01-15T10:16:00;98774.84;;;2.56;92.42
82986;BME280;72786;53.546;9.910;2024-01-15T10:18:29;98824.53;;;2.64;93.26
82986;BME280;72786;53.546;9.910;2024-01-15T10:20:56;98821.06;;;2.53;94.01
82986;BME280;72786;53.546;9.910;2024-01-15T10:23:26;98819.59;;;2.47;94.46
82986;BME280;72786;53.546;9.910;2024-01-15T10:25:52;98823.16;;;2.49;94.46
82986;BME280;72786;53.546;9.910;2024-01-15T10:28:19;98826.16;;;2.45;94.49
82986;BME280;72786;53.546;9.910;2024-01-15T10:30:45;98829.53;;;2.54;94.52
82986;BME280;72786;53.546;9.910;2024-01-15T10:33:12;98819.09;;;2.51;94.46
82986;BME280;72786;53.546;9.910;2024-01-15T10:35:40;98781.53;;;2.37;94.82
82986;BME280;72786;53.546;9.910;2024-01-15T10:38:07;98828.69;;;2.63;94.81
82986;BME280;72786;53.546;9.910;2024-01-15T10:40:33;98842.72;;;2.60;94.72
82986;BME280;72786;53.546;9.910;2024-01-15T10:43:00;98844.06;;;2.38;95.02
82986;BME280;72786;53.546;9.910;2024-01-15T10:45:26;98836.69;;;2.31;95.11
82986;BME280;72786;53.546;9.910;2024-01-15T10:47:54;98845.94;;;2.30;95.33
82986;BME280;72786;53.546;9.910;2024-01-15T10:50:25;98850.28;;;2.23;95.50
82986;BME280;72786;53.546;9.910;2024-01-15T10:52:52;98847.50;;;2.20;95.82
82986;BME280;72786;53.546;9.910;2024-01-15T10:55:19;98844.97;;;2.20;95.72
82986;BME280;72786;53.546;9.910;2024-01-15T10:57:48;98798.22;;;1.98;95.46
82986;BME280;72786;53.546;9.910;2024-01-15T11:00:16;98840.94;;;2.22;95.42
82986;BME280;72786;53.546;9.910;2024-01-15T11:02:43;98833.81;;;2.18;95.29
82986;BME280;72786;53.546;9.910;2024-01-15T11:05:09;98835.78;;;2.12;95.86
82986;BME280;72786;53.546;9.910;2024-01-15T11:07:39;98831.00;;;2.15;95.99
82986;BME280;72786;53.546;9.910;2024-01-15T11:10:06;98835.88;;;2.22;95.85
82986;BME280;72786;53.546;9.910;2024-01-15T11:12:40;98839.47;;;2.16;96.34
82986;BME280;72786;53.546;9.910;2024-01-15T11:15:07;98848.72;;;2.15;96.36
82986;BME280;72786;53.546;9.910;2024-01-15T11:18:05;98841.72;;;2.13;96.22
82986;BME280;72786;53.546;9.910;2024-01-15T11:20:32;98831.75;;;2.14;95.78
82986;BME280;72786;53.546;9.910;2024-01-15T11:22:59;98841.38;;;2.18;96.15
82986;BME280;72786;53.546;9.910;2024-01-15T11:25:34;98838.41;;;2.22;95.85
82986;BME280;72786;53.546;9.910;2024-01-15T11:28:03;98839.78;;;2.19;96.09
82986;BME280;72786;53.546;9.910;2024-01-15T11:30:30;98845.41;;;2.16;96.00
82986;BME280;72786;53.546;9.910;2024-01-15T11:32:57;98843.03;;;2.18;96.33
82986;BME280;72786;53.546;9.910;2024-01-15T11:35:49;98842.44;;;2.20;96.16
82986;BME280;72786;53.546;9.910;2024-01-15T11:38:28;98841.25;;;2.17;96.60
82986;BME280;72786;53.546;9.910;2024-01-15T11:40:55;98820.22;;;1.99;96.40
82986;BME280;72786;53.546;9.910;2024-01-15T11:43:22;98839.53;;;2.07;96.76
82986;BME280;72786;53.546;9.910;2024-01-15T11:45:51;98853.63;;;2.14;96.73
82986;BME280;72786;53.546;9.910;2024-01-15T11:48:18;98852.63;;;2.12;96.66
82986;BME280;72786;53.546;9.910;2024-01-15T11:50:49;98868.66;;;2.12;96.39
82986;BME280;72786;53.546;9.910;2024-01-15T11:55:51;98860.00;;;2.19;96.40
82986;BME280;72786;53.546;9.910;2024-01-15T11:58:18;98857.88;;;2.23;96.37
82986;BME280;72786;53.546;9.910;2024-01-15T12:00:47;98845.47;;;2.08;96.37
82986;BME280;72786;53.546;9.910;2024-01-15T12:03:15;98858.16;;;2.26;96.15
82986;BME280;72786;53.546;9.910;2024-01-15T12:05:42;98866.81;;;2.20;96.30
82986;BME280;72786;53.546;9.910;2024-01-15T12:08:09;98841.59;;;2.11;96.45
82986;BME280;72786;53.546;9.910;2024-01-15T12:10:40;98802.72;;;1.92;95.90
82986;BME280;72786;53.546;9.910;2024-01-15T12:15:41;98873.16;;;2.33;95.92
82986;BME280;72786;53.546;9.910;2024-01-15T12:18:09;98881.31;;;2.39;95.59
82986;BME280;72786;53.546;9.910;2024-01-15T12:20:37;98869.88;;;2.34;96.05
82986;BME280;72786;53.546;9.910;2024-01-15T12:23:04;98882.78;;;2.37;95.91
82986;BME280;72786;53.546;9.910;2024-01-15T12:25:34;98894.09;;;2.40;95.55
82986;BME280;72786;53.546;9.910;2024-01-15T12:28:01;98880.84;;;2.43;95.61
82986;BME280;72786;53.546;9.910;2024-01-15T12:30:28;98875.97;;;2.36;95.58
82986;BME280;72786;53.546;9.910;2024-01-15T12:32:55;98884.59;;;2.38;95.42
82986;BME280;72786;53.546;9.910;2024-01-15T12:35:24;98893.50;;;2.43;95.75
82986;BME280;72786;53.546;9.910;2024-01-15T12:37:54;98875.97;;;2.36;95.59
82986;BME280;72786;53.546;9.910;2024-01-15T12:40:21;98896.03;;;2.43;95.42
82986;BME280;72786;53.546;9.910;2024-01-15T12:42:48;98893.50;;;2.43;95.52
82986;BME280;72786;53.546;9.910;2024-01-15T12:45:17;98900.50;;;2.45;95.27
82986;BME280;72786;53.546;9.910;2024-01-15T12:47:44;98902.66;;;2.51;95.33
82986;BME280;72786;53.546;9.910;2024-01-15T12:50:12;98904.19;;;2.49;95.48
82986;BME280;72786;53.546;9.910;2024-01-15T12:52:46;98907.47;;;2.48;95.54
82986;BME280;72786;53.546;9.910;2024-01-15T12:55:13;98911.56;;;2.37;95.42
82986;BME280;72786;53.546;9.910;2024-01-15T12:57:40;98914.41;;;2.32;96.08
82986;BME280;72786;53.546;9.910;2024-01-15T13:00:06;98879.41;;;2.10;96.06
82986;BME280;72786;53.546;9.910;2024-01-15T13:02:38;98912.63;;;2.31;95.72
82986;BME280;72786;53.546;9.910;2024-01-15T13:05:07;98916.50;;;2.36;96.05
82986;BME280;72786;53.546;9.910;2024-01-15T13:07:34;98908.13;;;2.37;95.71
82986;BME280;72786;53.546;9.910;2024-01-15T13:10:01;98919.47;;;2.32;96.20
82986;BME280;72786;53.546;9.910;2024-01-15T13:12:27;98916.50;;;2.36;96.05
82986;BME280;72786;53.546;9.910;2024-01-15T13:14:54;98919.28;;;2.39;96.12
82986;BME280;72786;53.546;9.910;2024-01-15T13:17:20;98842.69;;;2.05;95.72